Список аэропортов
Фактическая погода:

15:00
Температура: -12°C
Ветер: юго-восточный 3 м/с
Видимость: 10 км
Давление: 763 мм рт. ст.
1016.8 гПа (-1.8)

Облачность: 7-8/0
перистые
выше 2,5 км
Время (МСК)Темп. СВетерВлажностьДавлениеОблачностьОсадки
15:00+14СЗ, 4 м/с28%1024 гПаясно
16:00+14СЗ, 4 м/с30%1024 гПаясно
17:00+13СЗ, 4 м/с31%1024 гПаоблачно
18:00+12СЗ, 3 м/с34%1024 гПамалооблачно
19:00+10СЗ, 2 м/с40%1024 гПамалооблачно
20:00+7СЗ, 2 м/с49%1025 гПас прояснениями
21:00+6СЗ, 3 м/с54%1025 гПаоблачно
22:00+5СЗ, 3 м/с58%1025 гПаоблачно
23:00+4СЗ, 3 м/с61%1026 гПаоблачно
22 апреля
00:00+3СЗ, 2 м/с68%1026 гПаоблачно
01:00+1СЗ, 2 м/с74%1026 гПаоблачно
02:00+1СЗ, 2 м/с78%1026 гПас прояснениями
03:000СЗ, 2 м/с81%1026 гПамалооблачно
04:00-0З, 2 м/с84%1026 гПас прояснениями
05:00-1З, 2 м/с85%1027 гПаясно
06:00-0З, 2 м/с82%1027 гПаясно
07:00+3СЗ, 1 м/с65%1027 гПаясно
08:00+8СЗ, 2 м/с48%1027 гПаясно
09:00+11СЗ, 2 м/с40%1027 гПаоблачно
10:00+12СЗ, 2 м/с37%1026 гПаоблачно
11:00+14СЗ, 2 м/с35%1026 гПаоблачно
12:00+14СЗ, 3 м/с34%1025 гПаоблачно
13:00+15З, 3 м/с33%1025 гПаоблачно
14:00+15З, 3 м/с32%1024 гПаоблачно
15:00+16З, 3 м/с32%1024 гПаоблачно
16:00+16З, 3 м/с32%1023 гПаоблачно
17:00+15СЗ, 3 м/с32%1023 гПаоблачно
18:00+14СЗ, 4 м/с34%1023 гПас прояснениями
19:00+12СЗ, 3 м/с40%1023 гПас прояснениями
20:00+9З, 2 м/с50%1023 гПамалооблачно
21:00+7ЮЗ, 2 м/с61%1023 гПаоблачно
22:00+6ЮЗ, 2 м/с72%1023 гПаоблачно
23:00+4ЮЗ, 2 м/с81%1023 гПаоблачно
23 апреля
00:00+4ЮЗ, 2 м/с86%1022 гПаоблачно
01:00+4ЮЗ, 3 м/с81%1022 гПаоблачно
02:00+4ЮЗ, 3 м/с84%1022 гПаоблачно
03:00+4ЮЗ, 3 м/с89%1022 гПамалооблачно
04:00+4ЮЗ, 3 м/с91%1022 гПаоблачно
05:00+3ЮЗ, 3 м/с91%1022 гПамалооблачно
06:00+5ЮЗ, 2 м/с82%1022 гПамалооблачно
07:00+9ЮЗ, 4 м/с62%1021 гПаоблачно
08:00+12З, 4 м/с52%1020 гПаоблачно
09:00+14З, 4 м/с46%1020 гПаоблачно
10:00+15З, 5 м/с39%1020 гПаоблачно
11:00+15З, 6 м/с33%1019 гПаоблачно
12:00+16З, 6 м/с31%1018 гПаоблачно
13:00+15З, 7 м/с30%1018 гПаоблачносл. дождь
14:00+15З, 7 м/с37%1018 гПаоблачносл. дождь
15:00+14З, 6 м/с40%1017 гПаоблачно